sensor_id;sensor_type;location;lat;lon;timestamp;temperature;humidity
4602;DHT22;2313;48.552;9.370;2023-07-02T00:01:41;17.80;99.90
4602;DHT22;2313;48.552;9.370;2023-07-02T00:04:07;17.70;99.90
4602;DHT22;2313;48.552;9.370;2023-07-02T00:06:34;17.70;99.90
4602;DHT22;2313;48.552;9.370;2023-07-02T00:09:09;17.70;99.90
4602;DHT22;2313;48.552;9.370;2023-07-02T00:11:37;17.60;99.90
4602;DHT22;2313;48.552;9.370;2023-07-02T00:14:04;17.60;99.90
4602;DHT22;2313;48.552;9.370;2023-07-02T00:16:30;17.60;99.90
4602;DHT22;2313;48.552;9.370;2023-07-02T00:18:55;17.50;99.90
4602;DHT22;2313;48.552;9.370;2023-07-02T00:21:21;17.50;99.90
4602;DHT22;2313;48.552;9.370;2023-07-02T00:23:47;17.40;99.90
4602;DHT22;2313;48.552;9.370;2023-07-02T00:26:13;17.40;99.90
4602;DHT22;2313;48.552;9.370;2023-07-02T00:28:39;17.40;99.90
4602;DHT22;2313;48.552;9.370;2023-07-02T00:31:04;17.40;99.90
4602;DHT22;2313;48.552;9.370;2023-07-02T00:33:31;17.40;99.90
4602;DHT22;2313;48.552;9.370;2023-07-02T00:35:57;17.30;99.90
4602;DHT22;2313;48.552;9.370;2023-07-02T00:38:23;17.30;99.90
4602;DHT22;2313;48.552;9.370;2023-07-02T00:40:48;17.30;99.90
4602;DHT22;2313;48.552;9.370;2023-07-02T00:43:14;17.20;99.90
4602;DHT22;2313;48.552;9.370;2023-07-02T00:45:40;17.20;99.90
4602;DHT22;2313;48.552;9.370;2023-07-02T00:48:06;17.20;99.90
4602;DHT22;2313;48.552;9.370;2023-07-02T00:50:32;17.20;99.90
4602;DHT22;2313;48.552;9.370;2023-07-02T00:52:58;17.20;99.90
4602;DHT22;2313;48.552;9.370;2023-07-02T00:55:24;17.20;99.90
4602;DHT22;2313;48.552;9.370;2023-07-02T00:57:50;17.30;99.90
4602;DHT22;2313;48.552;9.370;2023-07-02T01:00:16;17.20;99.90
4602;DHT22;2313;48.552;9.370;2023-07-02T01:02:42;17.20;99.90
4602;DHT22;2313;48.552;9.370;2023-07-02T01:05:15;17.20;99.90
4602;DHT22;2313;48.552;9.370;2023-07-02T01:07:41;17.20;99.90
4602;DHT22;2313;48.552;9.370;2023-07-02T01:10:07;17.20;99.90
4602;DHT22;2313;48.552;9.370;2023-07-02T01:12:33;17.20;99.90
4602;DHT22;2313;48.552;9.370;2023-07-02T01:15:02;17.20;99.90
4602;DHT22;2313;48.552;9.370;2023-07-02T01:17:31;17.10;99.90
4602;DHT22;2313;48.552;9.370;2023-07-02T01:20:04;17.00;99.90
4602;DHT22;2313;48.552;9.370;2023-07-02T01:22:30;17.00;99.90
4602;DHT22;2313;48.552;9.370;2023-07-02T01:24:56;17.10;99.90
4602;DHT22;2313;48.552;9.370;2023-07-02T01:27:22;17.10;99.90
4602;DHT22;2313;48.552;9.370;2023-07-02T01:29:52;17.10;99.90
4602;DHT22;2313;48.552;9.370;2023-07-02T01:32:17;17.10;99.90
4602;DHT22;2313;48.552;9.370;2023-07-02T01:34:43;17.10;99.90
4602;DHT22;2313;48.552;9.370;2023-07-02T01:37:17;17.10;99.90
4602;DHT22;2313;48.552;9.370;2023-07-02T01:39:44;17.10;99.90
4602;DHT22;2313;48.552;9.370;2023-07-02T01:42:19;17.10;99.90
4602;DHT22;2313;48.552;9.370;2023-07-02T01:44:47;17.10;99.90
4602;DHT22;2313;48.552;9.370;2023-07-02T01:47:13;17.10;99.90
4602;DHT22;2313;48.552;9.370;2023-07-02T01:49:39;17.20;99.90
4602;DHT22;2313;48.552;9.370;2023-07-02T01:52:05;17.10;99.90
4602;DHT22;2313;48.552;9.370;2023-07-02T01:54:34;17.10;99.90
4602;DHT22;2313;48.552;9.370;2023-07-02T01:57:00;17.10;99.90
4602;DHT22;2313;48.552;9.370;2023-07-02T01:59:26;16.90;99.90
4602;DHT22;2313;48.552;9.370;2023-07-02T02:01:52;16.90;99.90
4602;DHT22;2313;48.552;9.370;2023-07-02T02:04:18;16.90;99.90
4602;DHT22;2313;48.552;9.370;2023-07-02T02:06:44;16.90;99.90
4602;DHT22;2313;48.552;9.370;2023-07-02T02:09:10;16.80;99.90
4602;DHT22;2313;48.552;9.370;2023-07-02T02:11:39;16.80;99.90
4602;DHT22;2313;48.552;9.370;2023-07-02T02:14:05;16.90;99.90
4602;DHT22;2313;48.552;9.370;2023-07-02T02:16:31;16.90;99.90
4602;DHT22;2313;48.552;9.370;2023-07-02T02:18:59;16.70;99.90
4602;DHT22;2313;48.552;9.370;2023-07-02T02:21:25;16.80;99.90
4602;DHT22;2313;48.552;9.370;2023-07-02T02:23:51;16.70;99.90
4602;DHT22;2313;48.552;9.370;2023-07-02T02:26:17;16.70;99.90
4602;DHT22;2313;48.552;9.370;2023-07-02T02:28:42;16.70;99.90
4602;DHT22;2313;48.552;9.370;2023-07-02T02:31:08;16.70;99.90
4602;DHT22;2313;48.552;9.370;2023-07-02T02:33:34;16.60;99.90
4602;DHT22;2313;48.552;9.370;2023-07-02T02:36:01;16.40;99.90
4602;DHT22;2313;48.552;9.370;2023-07-02T02:38:27;16.20;99.90
4602;DHT22;2313;48.552;9.370;2023-07-02T02:40:52;16.10;99.90
4602;DHT22;2313;48.552;9.370;2023-07-02T02:43:18;16.00;99.90
4602;DHT22;2313;48.552;9.370;2023-07-02T02:45:44;16.10;99.90
4602;DHT22;2313;48.552;9.370;2023-07-02T02:48:09;16.00;99.90
4602;DHT22;2313;48.552;9.370;2023-07-02T02:50:36;15.90;99.90
4602;DHT22;2313;48.552;9.370;2023-07-02T02:53:02;15.80;99.90
4602;DHT22;2313;48.552;9.370;2023-07-02T02:55:28;15.70;99.90
4602;DHT22;2313;48.552;9.370;2023-07-02T02:57:53;15.80;99.90
4602;DHT22;2313;48.552;9.370;2023-07-02T03:00:19;15.90;99.90
4602;DHT22;2313;48.552;9.370;2023-07-02T03:02:45;16.00;99.90
4602;DHT22;2313;48.552;9.370;2023-07-02T03:05:10;15.90;99.90
4602;DHT22;2313;48.552;9.370;2023-07-02T03:07:36;15.80;99.90
4602;DHT22;2313;48.552;9.370;2023-07-02T03:10:02;15.80;99.90
4602;DHT22;2313;48.552;9.370;2023-07-02T03:12:27;16.00;99.90
4602;DHT22;2313;48.552;9.370;2023-07-02T03:14:53;16.00;99.90
4602;DHT22;2313;48.552;9.370;2023-07-02T03:17:21;16.10;99.90
4602;DHT22;2313;48.552;9.370;2023-07-02T03:19:46;16.20;99.90
4602;DHT22;2313;48.552;9.370;2023-07-02T03:22:12;16.10;99.90
4602;DHT22;2313;48.552;9.370;2023-07-02T03:24:38;16.00;99.90
4602;DHT22;2313;48.552;9.370;2023-07-02T03:27:04;15.90;99.90
4602;DHT22;2313;48.552;9.370;2023-07-02T03:29:30;16.00;99.90
4602;DHT22;2313;48.552;9.370;2023-07-02T03:31:55;16.00;99.90
4602;DHT22;2313;48.552;9.370;2023-07-02T03:34:21;16.00;99.90
4602;DHT22;2313;48.552;9.370;2023-07-02T03:36:49;16.10;99.90
4602;DHT22;2313;48.552;9.370;2023-07-02T03:39:15;16.20;99.90
4602;DHT22;2313;48.552;9.370;2023-07-02T03:41:41;16.20;99.90
4602;DHT22;2313;48.552;9.370;2023-07-02T03:44:07;16.20;99.90
4602;DHT22;2313;48.552;9.370;2023-07-02T03:46:33;16.20;99.90
4602;DHT22;2313;48.552;9.370;2023-07-02T03:48:59;16.20;99.90
4602;DHT22;2313;48.552;9.370;2023-07-02T03:51:24;16.20;99.90
4602;DHT22;2313;48.552;9.370;2023-07-02T03:53:50;16.20;99.90
4602;DHT22;2313;48.552;9.370;2023-07-02T03:56:16;16.10;99.90
4602;DHT22;2313;48.552;9.370;2023-07-02T03:58:41;16.00;99.90
4602;DHT22;2313;48.552;9.370;2023-07-02T04:01:07;16.00;99.90
4602;DHT22;2313;48.552;9.370;2023-07-02T04:03:33;15.90;99.90
4602;DHT22;2313;48.552;9.370;2023-07-02T04:05:58;15.90;99.90
4602;DHT22;2313;48.552;9.370;2023-07-02T04:08:24;15.80;99.90
4602;DHT22;2313;48.552;9.370;2023-07-02T04:10:55;15.80;99.90
4602;DHT22;2313;48.552;9.370;2023-07-02T04:13:21;15.70;99.90
4602;DHT22;2313;48.552;9.370;2023-07-02T04:15:47;15.70;99.90
4602;DHT22;2313;48.552;9.370;2023-07-02T04:18:12;15.70;99.90
4602;DHT22;2313;48.552;9.370;2023-07-02T04:20:38;15.60;99.90
4602;DHT22;2313;48.552;9.370;2023-07-02T04:23:05;15.60;99.90
4602;DHT22;2313;48.552;9.370;2023-07-02T04:25:31;15.60;99.90
4602;DHT22;2313;48.552;9.370;2023-07-02T04:27:56;15.60;99.90
4602;DHT22;2313;48.552;9.370;2023-07-02T04:30:24;15.60;99.90
4602;DHT22;2313;48.552;9.370;2023-07-02T04:32:51;15.50;99.90
4602;DHT22;2313;48.552;9.370;2023-07-02T04:35:17;15.50;99.90
4602;DHT22;2313;48.552;9.370;2023-07-02T04:37:42;15.50;99.90
4602;DHT22;2313;48.552;9.370;2023-07-02T04:40:08;15.50;99.90
4602;DHT22;2313;48.552;9.370;2023-07-02T04:42:40;15.50;99.90
4602;DHT22;2313;48.552;9.370;2023-07-02T04:45:07;15.50;99.90
4602;DHT22;2313;48.552;9.370;2023-07-02T04:47:34;15.60;99.90
4602;DHT22;2313;48.552;9.370;2023-07-02T04:50:00;15.50;99.90
4602;DHT22;2313;48.552;9.370;2023-07-02T04:52:26;15.50;99.90
4602;DHT22;2313;48.552;9.370;2023-07-02T04:54:52;15.50;99.90
4602;DHT22;2313;48.552;9.370;2023-07-02T04:57:18;15.60;99.90
4602;DHT22;2313;48.552;9.370;2023-07-02T04:59:44;15.50;99.90
4602;DHT22;2313;48.552;9.370;2023-07-02T05:02:10;15.50;99.90
4602;DHT22;2313;48.552;9.370;2023-07-02T05:04:36;15.60;99.90
4602;DHT22;2313;48.552;9.370;2023-07-02T05:07:05;15.60;99.90
4602;DHT22;2313;48.552;9.370;2023-07-02T05:09:30;15.60;99.90
4602;DHT22;2313;48.552;9.370;2023-07-02T05:11:57;15.50;99.90
4602;DHT22;2313;48.552;9.370;2023-07-02T05:14:23;15.70;99.90
4602;DHT22;2313;48.552;9.370;2023-07-02T05:16:49;15.70;99.90
4602;DHT22;2313;48.552;9.370;2023-07-02T05:19:15;15.70;99.90
4602;DHT22;2313;48.552;9.370;2023-07-02T05:21:40;15.70;99.90
4602;DHT22;2313;48.552;9.370;2023-07-02T05:24:07;15.70;99.90
4602;DHT22;2313;48.552;9.370;2023-07-02T05:26:33;15.70;99.90
4602;DHT22;2313;48.552;9.370;2023-07-02T05:28:58;15.80;99.90
4602;DHT22;2313;48.552;9.370;2023-07-02T05:31:24;15.60;99.90
4602;DHT22;2313;48.552;9.370;2023-07-02T05:33:49;15.70;99.90
4602;DHT22;2313;48.552;9.370;2023-07-02T05:36:15;15.70;99.90
4602;DHT22;2313;48.552;9.370;2023-07-02T05:38:41;15.70;99.90
4602;DHT22;2313;48.552;9.370;2023-07-02T05:41:07;15.80;99.90
4602;DHT22;2313;48.552;9.370;2023-07-02T05:43:32;15.80;99.90
4602;DHT22;2313;48.552;9.370;2023-07-02T05:45:58;15.80;99.90
4602;DHT22;2313;48.552;9.370;2023-07-02T05:48:27;16.00;99.90
4602;DHT22;2313;48.552;9.370;2023-07-02T05:50:53;16.00;99.90
4602;DHT22;2313;48.552;9.370;2023-07-02T05:53:19;16.10;99.90
4602;DHT22;2313;48.552;9.370;2023-07-02T05:55:44;16.20;99.90
4602;DHT22;2313;48.552;9.370;2023-07-02T05:58:10;16.30;99.90
4602;DHT22;2313;48.552;9.370;2023-07-02T06:00:36;16.30;99.90
4602;DHT22;2313;48.552;9.370;2023-07-02T06:03:02;16.50;99.90
4602;DHT22;2313;48.552;9.370;2023-07-02T06:05:28;16.60;99.90
4602;DHT22;2313;48.552;9.370;2023-07-02T06:07:54;16.50;99.90
4602;DHT22;2313;48.552;9.370;2023-07-02T06:10:19;16.60;99.90
4602;DHT22;2313;48.552;9.370;2023-07-02T06:12:45;16.60;99.90
4602;DHT22;2313;48.552;9.370;2023-07-02T06:15:11;16.60;99.90
4602;DHT22;2313;48.552;9.370;2023-07-02T06:17:37;16.60;99.90
4602;DHT22;2313;48.552;9.370;2023-07-02T06:20:03;16.70;99.90
4602;DHT22;2313;48.552;9.370;2023-07-02T06:22:32;16.70;99.90
4602;DHT22;2313;48.552;9.370;2023-07-02T06:24:57;16.70;99.90
4602;DHT22;2313;48.552;9.370;2023-07-02T06:27:23;16.80;99.90
4602;DHT22;2313;48.552;9.370;2023-07-02T06:29:48;16.90;99.90
4602;DHT22;2313;48.552;9.370;2023-07-02T06:32:15;16.90;99.90
4602;DHT22;2313;48.552;9.370;2023-07-02T06:34:41;16.90;99.90
4602;DHT22;2313;48.552;9.370;2023-07-02T06:37:07;17.10;99.90
4602;DHT22;2313;48.552;9.370;2023-07-02T06:39:32;17.20;99.90
4602;DHT22;2313;48.552;9.370;2023-07-02T06:41:58;17.50;99.90
4602;DHT22;2313;48.552;9.370;2023-07-02T06:44:23;17.50;99.90
4602;DHT22;2313;48.552;9.370;2023-07-02T06:46:49;17.50;99.90
4602;DHT22;2313;48.552;9.370;2023-07-02T06:49:14;17.50;99.90
4602;DHT22;2313;48.552;9.370;2023-07-02T06:51:40;17.50;99.90
4602;DHT22;2313;48.552;9.370;2023-07-02T06:54:07;17.50;99.90
4602;DHT22;2313;48.552;9.370;2023-07-02T06:56:32;17.40;99.90
4602;DHT22;2313;48.552;9.370;2023-07-02T06:58:59;17.30;99.90
4602;DHT22;2313;48.552;9.370;2023-07-02T07:01:25;17.40;99.90
4602;DHT22;2313;48.552;9.370;2023-07-02T07:03:51;17.60;99.90
4602;DHT22;2313;48.552;9.370;2023-07-02T07:06:16;17.60;99.90
4602;DHT22;2313;48.552;9.370;2023-07-02T07:08:42;17.60;99.90
4602;DHT22;2313;48.552;9.370;2023-07-02T07:11:08;17.80;99.90
4602;DHT22;2313;48.552;9.370;2023-07-02T07:13:33;17.80;99.90
4602;DHT22;2313;48.552;9.370;2023-07-02T07:15:59;17.90;99.90
4602;DHT22;2313;48.552;9.370;2023-07-02T07:18:24;18.00;99.90
4602;DHT22;2313;48.552;9.370;2023-07-02T07:20:50;18.20;99.90
4602;DHT22;2313;48.552;9.370;2023-07-02T07:23:18;18.30;99.90
4602;DHT22;2313;48.552;9.370;2023-07-02T07:25:43;18.30;99.90
4602;DHT22;2313;48.552;9.370;2023-07-02T07:28:09;18.30;99.90
4602;DHT22;2313;48.552;9.370;2023-07-02T07:30:41;18.40;99.90
4602;DHT22;2313;48.552;9.370;2023-07-02T07:33:06;18.40;99.90
4602;DHT22;2313;48.552;9.370;2023-07-02T07:35:32;18.40;99.90
4602;DHT22;2313;48.552;9.370;2023-07-02T07:37:57;18.50;99.90
4602;DHT22;2313;48.552;9.370;2023-07-02T07:40:23;18.60;99.90
4602;DHT22;2313;48.552;9.370;2023-07-02T07:42:48;18.60;99.90
4602;DHT22;2313;48.552;9.370;2023-07-02T07:45:14;18.60;99.90
4602;DHT22;2313;48.552;9.370;2023-07-02T07:47:40;18.60;99.90
4602;DHT22;2313;48.552;9.370;2023-07-02T07:50:06;18.50;99.90
4602;DHT22;2313;48.552;9.370;2023-07-02T07:52:37;18.50;99.90
4602;DHT22;2313;48.552;9.370;2023-07-02T07:55:03;18.50;99.90
4602;DHT22;2313;48.552;9.370;2023-07-02T07:57:28;18.50;99.90
4602;DHT22;2313;48.552;9.370;2023-07-02T07:59:54;18.60;99.90
4602;DHT22;2313;48.552;9.370;2023-07-02T08:02:19;18.40;99.90
4602;DHT22;2313;48.552;9.370;2023-07-02T08:04:48;18.50;99.90
4602;DHT22;2313;48.552;9.370;2023-07-02T08:07:14;18.70;99.90
4602;DHT22;2313;48.552;9.370;2023-07-02T08:09:40;18.90;99.90
4602;DHT22;2313;48.552;9.370;2023-07-02T08:12:05;19.00;99.90
4602;DHT22;2313;48.552;9.370;2023-07-02T08:14:31;19.10;99.90
4602;DHT22;2313;48.552;9.370;2023-07-02T08:16:57;19.20;99.90
4602;DHT22;2313;48.552;9.370;2023-07-02T08:19:22;19.40;99.90
4602;DHT22;2313;48.552;9.370;2023-07-02T08:21:48;19.40;99.90
4602;DHT22;2313;48.552;9.370;2023-07-02T08:24:13;19.50;99.90
4602;DHT22;2313;48.552;9.370;2023-07-02T08:26:39;19.60;99.90
4602;DHT22;2313;48.552;9.370;2023-07-02T08:29:05;19.70;99.90
4602;DHT22;2313;48.552;9.370;2023-07-02T08:31:30;19.90;99.90
4602;DHT22;2313;48.552;9.370;2023-07-02T08:33:56;20.10;99.90
4602;DHT22;2313;48.552;9.370;2023-07-02T08:36:21;20.00;99.90
4602;DHT22;2313;48.552;9.370;2023-07-02T08:38:47;19.90;99.90
4602;DHT22;2313;48.552;9.370;2023-07-02T08:41:13;19.80;99.90
4602;DHT22;2313;48.552;9.370;2023-07-02T08:43:39;19.70;99.90
4602;DHT22;2313;48.552;9.370;2023-07-02T08:46:05;19.70;99.90
4602;DHT22;2313;48.552;9.370;2023-07-02T08:48:34;19.80;99.90
4602;DHT22;2313;48.552;9.370;2023-07-02T08:50:59;20.10;99.90
4602;DHT22;2313;48.552;9.370;2023-07-02T08:53:25;20.10;99.90
4602;DHT22;2313;48.552;9.370;2023-07-02T08:55:55;20.10;99.90
4602;DHT22;2313;48.552;9.370;2023-07-02T08:58:22;20.30;99.90
4602;DHT22;2313;48.552;9.370;2023-07-02T09:03:35;20.70;99.90
4602;DHT22;2313;48.552;9.370;2023-07-02T09:06:03;20.80;99.90
4602;DHT22;2313;48.552;9.370;2023-07-02T09:08:29;20.80;99.90
4602;DHT22;2313;48.552;9.370;2023-07-02T09:11:08;20.90;99.90
4602;DHT22;2313;48.552;9.370;2023-07-02T09:16:27;21.30;99.90
4602;DHT22;2313;48.552;9.370;2023-07-02T09:19:02;21.20;99.90
4602;DHT22;2313;48.552;9.370;2023-07-02T09:21:48;21.60;99.90
4602;DHT22;2313;48.552;9.370;2023-07-02T09:24:21;22.00;99.90
4602;DHT22;2313;48.552;9.370;2023-07-02T09:26:50;22.10;99.90
4602;DHT22;2313;48.552;9.370;2023-07-02T09:31:48;22.60;99.90
4602;DHT22;2313;48.552;9.370;2023-07-02T09:34:14;22.80;99.90
4602;DHT22;2313;48.552;9.370;2023-07-02T09:36:40;23.00;99.90
4602;DHT22;2313;48.552;9.370;2023-07-02T09:39:19;23.30;99.90
4602;DHT22;2313;48.552;9.370;2023-07-02T09:41:48;23.00;99.90
4602;DHT22;2313;48.552;9.370;2023-07-02T09:44:15;23.00;99.90
4602;DHT22;2313;48.552;9.370;2023-07-02T09:46:45;22.90;99.80
4602;DHT22;2313;48.552;9.370;2023-07-02T09:49:17;23.20;99.90
4602;DHT22;2313;48.552;9.370;2023-07-02T09:51:45;23.40;99.40
4602;DHT22;2313;48.552;9.370;2023-07-02T09:54:11;23.80;99.90
4602;DHT22;2313;48.552;9.370;2023-07-02T09:56:37;24.00;97.90
4602;DHT22;2313;48.552;9.370;2023-07-02T09:59:03;24.10;95.70
4602;DHT22;2313;48.552;9.370;2023-07-02T10:01:28;24.00;94.80
4602;DHT22;2313;48.552;9.370;2023-07-02T10:03:54;24.20;95.00
4602;DHT22;2313;48.552;9.370;2023-07-02T10:06:19;24.10;94.50
4602;DHT22;2313;48.552;9.370;2023-07-02T10:08:55;24.10;94.60
4602;DHT22;2313;48.552;9.370;2023-07-02T10:11:21;24.10;94.10
4602;DHT22;2313;48.552;9.370;2023-07-02T10:13:58;24.30;94.50
4602;DHT22;2313;48.552;9.370;2023-07-02T10:16:24;24.40;94.50
4602;DHT22;2313;48.552;9.370;2023-07-02T10:18:53;24.10;94.50
4602;DHT22;2313;48.552;9.370;2023-07-02T10:21:19;23.90;95.40
4602;DHT22;2313;48.552;9.370;2023-07-02T10:23:45;24.30;94.30
4602;DHT22;2313;48.552;9.370;2023-07-02T10:26:19;24.30;92.00
4602;DHT22;2313;48.552;9.370;2023-07-02T10:28:56;24.50;93.30
4602;DHT22;2313;48.552;9.370;2023-07-02T10:31:22;24.70;93.00
4602;DHT22;2313;48.552;9.370;2023-07-02T10:33:48;24.30;93.80
4602;DHT22;2313;48.552;9.370;2023-07-02T10:36:24;24.00;93.80
4602;DHT22;2313;48.552;9.370;2023-07-02T10:38:51;23.70;92.00
4602;DHT22;2313;48.552;9.370;2023-07-02T10:41:28;23.80;93.00
4602;DHT22;2313;48.552;9.370;2023-07-02T10:43:54;24.40;91.00
4602;DHT22;2313;48.552;9.370;2023-07-02T10:46:21;24.90;91.30
4602;DHT22;2313;48.552;9.370;2023-07-02T10:48:56;25.40;90.70
4602;DHT22;2313;48.552;9.370;2023-07-02T10:51:23;25.20;89.10
4602;DHT22;2313;48.552;9.370;2023-07-02T10:54:01;25.10;90.20
4602;DHT22;2313;48.552;9.370;2023-07-02T10:56:28;25.40;90.40
4602;DHT22;2313;48.552;9.370;2023-07-02T10:58:54;25.60;87.20
4602;DHT22;2313;48.552;9.370;2023-07-02T11:01:24;25.90;89.00
4602;DHT22;2313;48.552;9.370;2023-07-02T11:04:03;26.10;85.40
4602;DHT22;2313;48.552;9.370;2023-07-02T11:06:31;26.30;85.60
4602;DHT22;2313;48.552;9.370;2023-07-02T11:08:58;26.60;87.00
4602;DHT22;2313;48.552;9.370;2023-07-02T11:11:24;26.50;86.40
4602;DHT22;2313;48.552;9.370;2023-07-02T11:13:50;26.40;85.40
4602;DHT22;2313;48.552;9.370;2023-07-02T11:16:35;26.30;86.50
4602;DHT22;2313;48.552;9.370;2023-07-02T11:19:08;26.00;84.50
4602;DHT22;2313;48.552;9.370;2023-07-02T11:21:34;26.10;84.40
4602;DHT22;2313;48.552;9.370;2023-07-02T11:24:03;26.30;85.40
4602;DHT22;2313;48.552;9.370;2023-07-02T11:26:39;26.60;82.90
4602;DHT22;2313;48.552;9.370;2023-07-02T11:29:10;26.80;83.80
4602;DHT22;2313;48.552;9.370;2023-07-02T11:31:36;26.90;82.20
4602;DHT22;2313;48.552;9.370;2023-07-02T11:34:14;26.80;82.30
4602;DHT22;2313;48.552;9.370;2023-07-02T11:36:40;27.00;83.50
4602;DHT22;2313;48.552;9.370;2023-07-02T11:39:06;27.20;80.40
4602;DHT22;2313;48.552;9.370;2023-07-02T11:41:39;27.40;82.00
4602;DHT22;2313;48.552;9.370;2023-07-02T11:44:05;27.30;80.90
4602;DHT22;2313;48.552;9.370;2023-07-02T11:46:30;27.10;76.10
4602;DHT22;2313;48.552;9.370;2023-07-02T11:48:56;27.10;78.10
4602;DHT22;2313;48.552;9.370;2023-07-02T11:51:22;26.60;79.10
4602;DHT22;2313;48.552;9.370;2023-07-02T11:53:47;26.60;78.90
4602;DHT22;2313;48.552;9.370;2023-07-02T11:56:13;26.90;79.00
4602;DHT22;2313;48.552;9.370;2023-07-02T11:58:42;27.40;79.90
4602;DHT22;2313;48.552;9.370;2023-07-02T12:01:08;27.30;75.40
4602;DHT22;2313;48.552;9.370;2023-07-02T12:03:34;27.60;78.60
4602;DHT22;2313;48.552;9.370;2023-07-02T12:05:59;27.70;75.30
4602;DHT22;2313;48.552;9.370;2023-07-02T12:08:25;27.10;74.70
4602;DHT22;2313;48.552;9.370;2023-07-02T12:10:51;26.70;77.30
4602;DHT22;2313;48.552;9.370;2023-07-02T12:13:16;26.30;79.20
4602;DHT22;2313;48.552;9.370;2023-07-02T12:15:42;25.90;79.50
4602;DHT22;2313;48.552;9.370;2023-07-02T12:18:09;26.00;79.50
4602;DHT22;2313;48.552;9.370;2023-07-02T12:20:35;26.20;79.40
4602;DHT22;2313;48.552;9.370;2023-07-02T12:23:01;26.10;77.90
4602;DHT22;2313;48.552;9.370;2023-07-02T12:25:26;25.80;77.70
4602;DHT22;2313;48.552;9.370;2023-07-02T12:27:52;25.50;77.40
4602;DHT22;2313;48.552;9.370;2023-07-02T12:30:19;25.90;80.50
4602;DHT22;2313;48.552;9.370;2023-07-02T12:32:44;26.40;81.50
4602;DHT22;2313;48.552;9.370;2023-07-02T12:35:11;26.20;77.90
4602;DHT22;2313;48.552;9.370;2023-07-02T12:37:46;26.30;80.00
4602;DHT22;2313;48.552;9.370;2023-07-02T12:40:12;26.40;78.90
4602;DHT22;2313;48.552;9.370;2023-07-02T12:42:38;26.60;78.80
4602;DHT22;2313;48.552;9.370;2023-07-02T12:45:05;26.90;77.50
4602;DHT22;2313;48.552;9.370;2023-07-02T12:47:31;26.80;78.30
4602;DHT22;2313;48.552;9.370;2023-07-02T12:49:57;26.80;78.80
4602;DHT22;2313;48.552;9.370;2023-07-02T12:52:22;26.60;74.50
4602;DHT22;2313;48.552;9.370;2023-07-02T12:54:48;26.40;74.10
4602;DHT22;2313;48.552;9.370;2023-07-02T12:57:13;26.50;73.80
4602;DHT22;2313;48.552;9.370;2023-07-02T12:59:39;26.90;74.70
4602;DHT22;2313;48.552;9.370;2023-07-02T13:02:05;27.10;71.60
4602;DHT22;2313;48.552;9.370;2023-07-02T13:04:31;27.00;68.40
4602;DHT22;2313;48.552;9.370;2023-07-02T13:06:57;27.20;71.30
4602;DHT22;2313;48.552;9.370;2023-07-02T13:09:22;27.40;71.10
4602;DHT22;2313;48.552;9.370;2023-07-02T13:11:48;27.50;71.30
4602;DHT22;2313;48.552;9.370;2023-07-02T13:14:13;27.20;70.10
4602;DHT22;2313;48.552;9.370;2023-07-02T13:16:39;27.10;72.20
4602;DHT22;2313;48.552;9.370;2023-07-02T13:19:05;27.20;72.70
4602;DHT22;2313;48.552;9.370;2023-07-02T13:21:30;27.00;69.70
4602;DHT22;2313;48.552;9.370;2023-07-02T13:23:56;26.80;72.80
4602;DHT22;2313;48.552;9.370;2023-07-02T13:26:21;27.00;72.90
4602;DHT22;2313;48.552;9.370;2023-07-02T13:28:47;27.10;71.10
4602;DHT22;2313;48.552;9.370;2023-07-02T13:31:14;27.20;69.90
4602;DHT22;2313;48.552;9.370;2023-07-02T13:33:40;27.20;67.80
4602;DHT22;2313;48.552;9.370;2023-07-02T13:36:06;27.20;68.40
4602;DHT22;2313;48.552;9.370;2023-07-02T13:38:31;27.20;69.30
4602;DHT22;2313;48.552;9.370;2023-07-02T13:40:58;27.30;70.90
4602;DHT22;2313;48.552;9.370;2023-07-02T13:43:24;27.40;69.80
4602;DHT22;2313;48.552;9.370;2023-07-02T13:45:50;27.40;70.10
4602;DHT22;2313;48.552;9.370;2023-07-02T13:48:15;27.40;70.50
4602;DHT22;2313;48.552;9.370;2023-07-02T13:50:41;27.10;71.10
4602;DHT22;2313;48.552;9.370;2023-07-02T13:53:08;27.30;71.60
4602;DHT22;2313;48.552;9.370;2023-07-02T13:55:34;27.20;72.30
4602;DHT22;2313;48.552;9.370;2023-07-02T13:58:00;27.40;75.40
4602;DHT22;2313;48.552;9.370;2023-07-02T14:00:27;27.50;72.20
4602;DHT22;2313;48.552;9.370;2023-07-02T14:02:53;27.50;73.00
4602;DHT22;2313;48.552;9.370;2023-07-02T14:05:19;27.30;72.10
4602;DHT22;2313;48.552;9.370;2023-07-02T14:07:45;27.30;73.80
4602;DHT22;2313;48.552;9.370;2023-07-02T14:10:11;26.90;71.70
4602;DHT22;2313;48.552;9.370;2023-07-02T14:12:38;26.80;73.00
4602;DHT22;2313;48.552;9.370;2023-07-02T14:15:05;26.60;69.80
4602;DHT22;2313;48.552;9.370;2023-07-02T14:17:30;26.40;71.10
4602;DHT22;2313;48.552;9.370;2023-07-02T14:19:56;26.70;71.80
4602;DHT22;2313;48.552;9.370;2023-07-02T14:22:22;26.90;72.10
4602;DHT22;2313;48.552;9.370;2023-07-02T14:24:47;26.90;71.60
4602;DHT22;2313;48.552;9.370;2023-07-02T14:27:13;26.70;77.00
4602;DHT22;2313;48.552;9.370;2023-07-02T14:29:39;26.50;74.10
4602;DHT22;2313;48.552;9.370;2023-07-02T14:32:05;26.70;77.20
4602;DHT22;2313;48.552;9.370;2023-07-02T14:34:30;26.70;74.50
4602;DHT22;2313;48.552;9.370;2023-07-02T14:36:57;26.70;71.60
4602;DHT22;2313;48.552;9.370;2023-07-02T14:39:23;26.50;73.80
4602;DHT22;2313;48.552;9.370;2023-07-02T14:41:49;26.30;72.70
4602;DHT22;2313;48.552;9.370;2023-07-02T14:44:14;26.00;74.30
4602;DHT22;2313;48.552;9.370;2023-07-02T14:46:40;26.10;74.10
4602;DHT22;2313;48.552;9.370;2023-07-02T14:49:05;26.20;76.00
4602;DHT22;2313;48.552;9.370;2023-07-02T14:51:31;26.30;73.40
4602;DHT22;2313;48.552;9.370;2023-07-02T14:53:57;26.50;74.10
4602;DHT22;2313;48.552;9.370;2023-07-02T14:56:22;26.60;74.10
4602;DHT22;2313;48.552;9.370;2023-07-02T14:58:48;26.50;73.70
4602;DHT22;2313;48.552;9.370;2023-07-02T15:01:14;26.30;70.00
4602;DHT22;2313;48.552;9.370;2023-07-02T15:03:41;26.40;75.00
4602;DHT22;2313;48.552;9.370;2023-07-02T15:06:12;26.50;73.90
4602;DHT22;2313;48.552;9.370;2023-07-02T15:08:39;26.30;73.70
4602;DHT22;2313;48.552;9.370;2023-07-02T15:11:05;26.10;72.70
4602;DHT22;2313;48.552;9.370;2023-07-02T15:13:31;26.00;71.60
4602;DHT22;2313;48.552;9.370;2023-07-02T15:15:57;26.10;72.40
4602;DHT22;2313;48.552;9.370;2023-07-02T15:18:22;26.10;73.20
4602;DHT22;2313;48.552;9.370;2023-07-02T15:20:52;26.10;71.30
4602;DHT22;2313;48.552;9.370;2023-07-02T15:23:22;26.30;71.90
4602;DHT22;2313;48.552;9.370;2023-07-02T15:25:59;26.40;74.00
4602;DHT22;2313;48.552;9.370;2023-07-02T15:28:26;26.40;72.60
4602;DHT22;2313;48.552;9.370;2023-07-02T15:31:02;26.30;72.60
4602;DHT22;2313;48.552;9.370;2023-07-02T15:33:28;26.00;71.50
4602;DHT22;2313;48.552;9.370;2023-07-02T15:35:54;25.80;72.10
4602;DHT22;2313;48.552;9.370;2023-07-02T15:38:19;26.00;72.90
4602;DHT22;2313;48.552;9.370;2023-07-02T15:40:47;25.90;71.40
4602;DHT22;2313;48.552;9.370;2023-07-02T15:43:13;26.00;70.20
4602;DHT22;2313;48.552;9.370;2023-07-02T15:45:38;26.00;70.00
4602;DHT22;2313;48.552;9.370;2023-07-02T15:48:04;26.00;72.30
4602;DHT22;2313;48.552;9.370;2023-07-02T15:50:30;26.00;72.00
4602;DHT22;2313;48.552;9.370;2023-07-02T15:52:56;25.80;71.20
4602;DHT22;2313;48.552;9.370;2023-07-02T15:55:21;25.70;73.20
4602;DHT22;2313;48.552;9.370;2023-07-02T15:57:49;25.70;74.00
4602;DHT22;2313;48.552;9.370;2023-07-02T16:00:15;25.70;74.10
4602;DHT22;2313;48.552;9.370;2023-07-02T16:02:42;25.70;72.90
4602;DHT22;2313;48.552;9.370;2023-07-02T16:05:09;25.70;71.80
4602;DHT22;2313;48.552;9.370;2023-07-02T16:07:35;25.70;70.90